4 lipca 2022

Czas Kod Pogoda Temp. Widoczność Sufit Wiatr METAR/SPECI
10:20 pm
L
59 °F 0 mi - Var 000° 0 kt METAR ETNT 042020Z AUTO /////KT //// // ////// 15/12 Q1019 ///
9:20 pm
L
61 °F 0 mi - Var 000° 0 kt METAR ETNT 041920Z AUTO /////KT //// // ////// 16/10 Q1018 ///
8:20 pm
L
64 °F 0 mi - Var 000° 0 kt METAR ETNT 041820Z AUTO /////KT //// // ////// 18/09 Q1018 ///
7:26 pm
V
64 °F 6¼ mi+ - 280° 280° 12 kt METAR ETNT 041726Z 28012KT 9999 FEW030 18/10 Q1018 BLU+
7:20 pm
V
64 °F 6¼ mi+ - 280° 280° 12 kt METAR ETNT 041720Z 28012KT 9999 FEW030 18/11 Q1018 BLU+
6:20 pm
V
66 °F 6¼ mi+ - 280° 280° 15 kt METAR ETNT 041620Z 28015KT 9999 SCT030 19/11 Q1018 BLU+
5:20 pm
V
66 °F 6¼ mi+ - 300° 300° 15 kt METAR ETNT 041520Z 30015KT 9999 SCT030 19/12 Q1018 BLU+
4:20 pm
V
68 °F 6¼ mi+ - 270° 270° 12 kt METAR ETNT 041420Z 27012KT 9999 SCT030 20/12 Q1018 BLU+
3:20 pm
V
68 °F 6¼ mi+ - 280° 280° 12 kt METAR ETNT 041320Z 28012KT 9999 SCT032 20/12 Q1018 BLU+
2:20 pm
V
70 °F 6¼ mi+ - 260° 260° 12 kt METAR ETNT 041220Z 26012KT 9999 SCT035 21/13 Q1018 BLU+
1:20 pm
V
68 °F 6¼ mi+ - 270° 270° 12 kt METAR ETNT 041120Z 27012KT 9999 SCT030 20/12 Q1018 BLACKBLU+
12:20 pm
V
66 °F 6¼ mi+ - 250° 250° 9 kt METAR ETNT 041020Z 25009KT 9999 SCT025 SCT050 19/13 Q1018 BLACKBLU+
11:20 am
V
66 °F 6¼ mi+ - 240° 240° 8 kt METAR ETNT 040920Z 24008KT 9999 FEW025 SCT075 19/12 Q1018 BLACKBLU+
10:20 am
V
64 °F 6¼ mi+ - 230° 230° 10 kt METAR ETNT 040820Z 23010KT 9999 SCT020 SCT290 18/13 Q1018 BLACKBLU+
9:20 am
V
63 °F 6¼ mi+ 26.000 ft 210° 210° 8 kt METAR ETNT 040720Z 21008KT 9999 FEW024 BKN260 17/13 Q1018 BLACKBLU+
8:20 am
V
59 °F 6¼ mi+ - 220° 220° 7 kt METAR ETNT 040620Z 22007KT 9999 FEW024 SCT280 15/13 Q1018 BLACKBLU+
7:20 am
V
57 °F 6¼ mi+ - 210° 210° 4 kt METAR ETNT 040520Z 21004KT 9999 FEW024 SCT290 14/12 Q1018 BLACKBLU+
6:20 am
V
54 °F 6¼ mi+ - 210° 210° 4 kt METAR ETNT 040420Z 21004KT 9999 FEW024 12/11 Q1018 BLACKBLU+
5:20 am
L
54 °F 0 mi - Var 000° 0 kt METAR ETNT 040320Z AUTO /////KT //// // ////// 12/11 Q1018 ///
4:20 am
L
54 °F 0 mi - Var 000° 0 kt METAR ETNT 040220Z AUTO /////KT //// // ////// 12/11 Q1018 ///
3:20 am
L
52 °F 0 mi - Var 000° 0 kt METAR ETNT 040120Z AUTO /////KT //// // ////// 11/11 Q1018 ///
2:20 am
L
54 °F 0 mi - Var 000° 0 kt METAR ETNT 040020Z AUTO /////KT //// // ////// 12/11 Q1018 ///
1:20 am
L
54 °F 0 mi - Var 000° 0 kt METAR ETNT 032320Z AUTO /////KT //// // ////// 12/12 Q1018 ///
12:20 am
L
55 °F 0 mi - Var 000° 0 kt METAR ETNT 032220Z AUTO /////KT //// // ////// 13/13 Q1018 ///

3 lipca 2022

Czas Kod Pogoda Temp. Widoczność Sufit Wiatr METAR/SPECI
11:20 pm
L
57 °F 0 mi - Var 000° 0 kt METAR ETNT 032120Z AUTO /////KT //// // ////// 14/13 Q1018 ///
10:20 pm
L
59 °F 0 mi - Var 000° 0 kt METAR ETNT 032020Z AUTO /////KT //// // ////// 15/14 Q1018 ///
9:20 pm
L
61 °F 0 mi - Var 000° 0 kt METAR ETNT 031920Z AUTO /////KT //// // ////// 16/15 Q1017 ///
8:20 pm
L
63 °F 0 mi - Var 000° 0 kt METAR ETNT 031820Z AUTO /////KT //// // ////// 17/15 Q1017 ///
7:20 pm
L
63 °F 0 mi - Var 000° 0 kt METAR ETNT 031720Z AUTO /////KT //// // ////// 17/15 Q1017 ///
6:20 pm
L
59 °F 0 mi - Var 000° 0 kt METAR ETNT 031620Z AUTO /////KT //// // ////// 15/14 Q1018 ///
5:20 pm
L
68 °F 0 mi - Var 000° 0 kt METAR ETNT 031520Z AUTO /////KT //// // ////// 20/13 Q1016 ///
4:20 pm
L
70 °F 0 mi - Var 000° 0 kt METAR ETNT 031420Z AUTO /////KT //// // ////// 21/15 Q1016 ///
3:20 pm
L
73 °F 0 mi - Var 000° 0 kt METAR ETNT 031320Z AUTO /////KT //// // ////// 23/14 Q1016 ///
2:20 pm
L
72 °F 0 mi - Var 000° 0 kt METAR ETNT 031220Z AUTO /////KT //// // ////// 22/13 Q1016 ///
1:20 pm
L
72 °F 0 mi - Var 000° 0 kt METAR ETNT 031120Z AUTO /////KT //// // ////// 22/13 Q1016 ///
12:20 pm
L
75 °F 0 mi - Var 000° 0 kt METAR ETNT 031020Z AUTO /////KT //// // ////// 24/13 Q1016 ///
11:20 am
L
73 °F 0 mi - Var 000° 0 kt METAR ETNT 030920Z AUTO /////KT //// // ////// 23/14 Q1016 ///
10:20 am
L
72 °F 0 mi - Var 000° 0 kt METAR ETNT 030820Z AUTO /////KT //// // ////// 22/13 Q1016 ///
9:20 am
L
70 °F 0 mi - Var 000° 0 kt METAR ETNT 030720Z AUTO /////KT //// // ////// 21/13 Q1016 ///
8:20 am
L
63 °F 0 mi - Var 000° 0 kt METAR ETNT 030620Z AUTO /////KT //// // ////// 17/14 Q1016 ///
7:20 am
L
61 °F 0 mi - Var 000° 0 kt METAR ETNT 030520Z AUTO /////KT //// // ////// 16/14 Q1016 ///
6:20 am
L
59 °F 0 mi - Var 000° 0 kt METAR ETNT 030420Z AUTO /////KT //// // ////// 15/14 Q1016 ///
5:20 am
L
55 °F 0 mi - Var 000° 0 kt METAR ETNT 030320Z AUTO /////KT //// // ////// 13/12 Q1016 ///
4:20 am
L
59 °F 0 mi - Var 000° 0 kt METAR ETNT 030220Z AUTO /////KT //// // ////// 15/13 Q1016 ///
3:20 am
L
59 °F 0 mi - Var 000° 0 kt METAR ETNT 030120Z AUTO /////KT //// // ////// 15/13 Q1016 ///
2:20 am
L
61 °F 0 mi - Var 000° 0 kt METAR ETNT 030020Z AUTO /////KT //// // ////// 16/13 Q1017 ///
1:20 am
L
61 °F 0 mi - Var 000° 0 kt METAR ETNT 022320Z AUTO /////KT //// // ////// 16/13 Q1017 ///
12:20 am
L
63 °F 0 mi - Var 000° 0 kt METAR ETNT 022220Z AUTO /////KT //// // ////// 17/13 Q1018 ///

2 lipca 2022

Czas Kod Pogoda Temp. Widoczność Sufit Wiatr METAR/SPECI
11:20 pm
L
63 °F 0 mi - Var 000° 0 kt METAR ETNT 022120Z AUTO /////KT //// // ////// 17/13 Q1018 ///
10:20 pm
L
63 °F 0 mi - Var 000° 0 kt METAR ETNT 022020Z AUTO /////KT //// // ////// 17/13 Q1018 ///
9:20 pm
L
63 °F 0 mi - Var 000° 0 kt METAR ETNT 021920Z AUTO /////KT //// // ////// 17/12 Q1018 ///
8:20 pm
L
66 °F 0 mi - Var 000° 0 kt METAR ETNT 021820Z AUTO /////KT //// // ////// 19/12 Q1019 ///
7:20 pm
L
72 °F 0 mi - Var 000° 0 kt METAR ETNT 021720Z AUTO /////KT //// // ////// 22/10 Q1019 ///
6:20 pm
L
72 °F 0 mi - Var 000° 0 kt METAR ETNT 021620Z AUTO /////KT //// // ////// 22/10 Q1019 ///
5:20 pm
L
73 °F 0 mi - Var 000° 0 kt METAR ETNT 021520Z AUTO /////KT //// // ////// 23/09 Q1020 ///
Starsze dane

Pobierz naszą aplikację

Łatwy dostęp do całej pogody lotniczej na telefonie komórkowym i tablecie.
Z wieloma funkcjami niedostępnymi na stronie internetowej, takimi jak wsparcie offline i osobista lista lotnisk.

My i osoby trzecie śledzimy twoje zachowanie w internecie na naszej stronie za pomocą plików cookie. Jeśli kontynuujesz, zakładamy, że zgadzasz się z naszą polityką plików cookie. Dowiedz się więcej